PWSweather.com
Personal Weather Stations
Station Observations
KCARIDGE3
Ridgecrest, CA 93555

Ridgecrest, CA 93555

Lat: 35.62083817, Lon: -117.6733017

Elevation: 2315

Station Type:

High Low Average
Temperature 104.7°F40.4°C 76.3°F24.6°C 90.7°F32.6°C
Dew Point 34.2°F1.2°C 14.5°F-9.7°C 25.4°F-3.7°C
Winds 15.0 mph 24.1 kmh 0.9 mph 1.4 kmh 6.0 mph SSW9.7 kmh SSW
Wind Gusts 17.9 mph28.8 kmh -- 6.0 mph9.7 kmh
Humidity 17% 4% 11%
Pressure -338605.1 mb -338605.1 mb -
Precipitation 0.00 in0.0 mm - -
Hour Temp Dew Point Humidity Winds Wind Gusts Pressure Precip Precip Rate Daily Precip Total
12:02 AM 85.3°F29.6°C 24.8°F-4.0°C 11% 12.1 mph SW19.5 kmh SW 16.1 mph25.9 kmh -338605.1 mb 0.00 in0.0 mm 0.00 in/hr0.0 mm/hr 0.00 in0.0 mm
12:07 AM 85.3°F29.6°C 24.8°F-4.0°C 11% 12.1 mph SW19.5 kmh SW 4.9 mph7.9 kmh -338605.1 mb 0.00 in0.0 mm 0.00 in/hr0.0 mm/hr 0.00 in0.0 mm
12:12 AM 85.3°F29.6°C 24.8°F-4.0°C 11% 12.1 mph SW19.5 kmh SW 16.1 mph25.9 kmh -338605.1 mb 0.00 in0.0 mm 0.00 in/hr0.0 mm/hr 0.00 in0.0 mm
12:17 AM 85.3°F29.6°C 24.8°F-4.0°C 11% 11.0 mph SW17.7 kmh SW 6.9 mph11.1 kmh -338605.1 mb 0.00 in0.0 mm 0.00 in/hr0.0 mm/hr 0.00 in0.0 mm
12:22 AM 85.3°F29.6°C 24.8°F-4.0°C 11% 10.1 mph SW16.3 kmh SW 6.0 mph9.7 kmh -338605.1 mb 0.00 in0.0 mm 0.00 in/hr0.0 mm/hr 0.00 in0.0 mm
12:27 AM 84.9°F29.4°C 24.6°F-4.1°C 11% 8.1 mph SW13.0 kmh SW 10.1 mph16.3 kmh -338605.1 mb 0.00 in0.0 mm 0.00 in/hr0.0 mm/hr 0.00 in0.0 mm
12:32 AM 84.7°F29.3°C 24.4°F-4.2°C 11% 8.9 mph SW14.3 kmh SW 10.1 mph16.3 kmh -338605.1 mb 0.00 in0.0 mm 0.00 in/hr0.0 mm/hr 0.00 in0.0 mm
12:37 AM 84.7°F29.3°C 24.4°F-4.2°C 11% 11.0 mph SW17.7 kmh SW 10.1 mph16.3 kmh -338605.1 mb 0.00 in0.0 mm 0.00 in/hr0.0 mm/hr 0.00 in0.0 mm
12:42 AM 84.7°F29.3°C 26.4°F-3.1°C 12% 10.1 mph WSW16.3 kmh WSW 11.0 mph17.7 kmh -338605.1 mb 0.00 in0.0 mm 0.00 in/hr0.0 mm/hr 0.00 in0.0 mm
12:47 AM 84.7°F29.3°C 26.4°F-3.1°C 12% 11.0 mph W17.7 kmh W 8.1 mph13.0 kmh -338605.1 mb 0.00 in0.0 mm 0.00 in/hr0.0 mm/hr 0.00 in0.0 mm
12:52 AM 84.7°F29.3°C 26.4°F-3.1°C 12% 11.0 mph WSW17.7 kmh WSW 11.0 mph17.7 kmh -338605.1 mb 0.00 in0.0 mm 0.00 in/hr0.0 mm/hr 0.00 in0.0 mm
12:57 AM 84.7°F29.3°C 26.4°F-3.1°C 12% 11.0 mph SW17.7 kmh SW 12.1 mph19.5 kmh -338605.1 mb 0.00 in0.0 mm 0.00 in/hr0.0 mm/hr 0.00 in0.0 mm
01:02 AM 84.9°F29.4°C 26.6°F-3.0°C 12% 12.1 mph SW19.5 kmh SW 10.1 mph16.3 kmh -338605.1 mb 0.00 in0.0 mm 0.00 in/hr0.0 mm/hr 0.00 in0.0 mm
01:07 AM 84.7°F29.3°C 28.4°F-2.0°C 13% 12.1 mph SW19.5 kmh SW 14.1 mph22.7 kmh -338605.1 mb 0.00 in0.0 mm 0.00 in/hr0.0 mm/hr 0.00 in0.0 mm
01:12 AM 84.7°F29.3°C 30.2°F-1.0°C 14% 12.1 mph WSW19.5 kmh WSW 16.1 mph25.9 kmh -338605.1 mb 0.00 in0.0 mm 0.00 in/hr0.0 mm/hr 0.00 in0.0 mm
01:17 AM 84.6°F29.2°C 30.2°F-1.0°C 14% 12.1 mph SW19.5 kmh SW 2.9 mph4.7 kmh -338605.1 mb 0.00 in0.0 mm 0.00 in/hr0.0 mm/hr 0.00 in0.0 mm
01:22 AM 84.4°F29.1°C 30.0°F-1.1°C 14% 11.0 mph SW17.7 kmh SW 11.0 mph17.7 kmh -338605.1 mb 0.00 in0.0 mm 0.00 in/hr0.0 mm/hr 0.00 in0.0 mm
01:27 AM 84.0°F28.9°C 31.5°F-0.3°C 15% 12.1 mph WSW19.5 kmh WSW 13.0 mph20.9 kmh -338605.1 mb 0.00 in0.0 mm 0.00 in/hr0.0 mm/hr 0.00 in0.0 mm
01:32 AM 84.0°F28.9°C 31.5°F-0.3°C 15% 12.1 mph WSW19.5 kmh WSW 2.9 mph4.7 kmh -338605.1 mb 0.00 in0.0 mm 0.00 in/hr0.0 mm/hr 0.00 in0.0 mm
01:37 AM 84.0°F28.9°C 33.1°F0.6°C 16% 10.1 mph SW16.3 kmh SW 13.0 mph20.9 kmh -338605.1 mb 0.00 in0.0 mm 0.00 in/hr0.0 mm/hr 0.00 in0.0 mm
01:42 AM 83.8°F28.8°C 32.9°F0.5°C 16% 10.1 mph WSW16.3 kmh WSW 10.1 mph16.3 kmh -338605.1 mb 0.00 in0.0 mm 0.00 in/hr0.0 mm/hr 0.00 in0.0 mm
01:47 AM 83.7°F28.7°C 32.7°F0.4°C 16% 10.1 mph SW16.3 kmh SW 8.1 mph13.0 kmh -338605.1 mb 0.00 in0.0 mm 0.00 in/hr0.0 mm/hr 0.00 in0.0 mm
01:52 AM 83.5°F28.6°C 34.2°F1.2°C 17% 8.9 mph SW14.3 kmh SW 6.9 mph11.1 kmh -338605.1 mb 0.00 in0.0 mm 0.00 in/hr0.0 mm/hr 0.00 in0.0 mm
01:57 AM 83.1°F28.4°C 33.8°F1.0°C 17% 8.1 mph SW13.0 kmh SW 11.0 mph17.7 kmh -338605.1 mb 0.00 in0.0 mm 0.00 in/hr0.0 mm/hr 0.00 in0.0 mm
02:02 AM 82.9°F28.3°C 33.6°F0.9°C 17% 6.9 mph SW11.1 kmh SW 4.9 mph7.9 kmh -338605.1 mb 0.00 in0.0 mm 0.00 in/hr0.0 mm/hr 0.00 in0.0 mm
02:07 AM 82.8°F28.2°C 33.4°F0.8°C 17% 6.9 mph SW11.1 kmh SW 13.0 mph20.9 kmh -338605.1 mb 0.00 in0.0 mm 0.00 in/hr0.0 mm/hr 0.00 in0.0 mm
02:12 AM 82.6°F28.1°C 33.4°F0.8°C 17% 8.1 mph WSW13.0 kmh WSW 6.0 mph9.7 kmh -338605.1 mb 0.00 in0.0 mm 0.00 in/hr0.0 mm/hr 0.00 in0.0 mm
02:17 AM 82.6°F28.1°C 33.4°F0.8°C 17% 8.1 mph SW13.0 kmh SW 6.9 mph11.1 kmh -338605.1 mb 0.00 in0.0 mm 0.00 in/hr0.0 mm/hr 0.00 in0.0 mm
02:22 AM 82.2°F27.9°C 33.1°F0.6°C 17% 6.9 mph SW11.1 kmh SW 14.1 mph22.7 kmh -338605.1 mb 0.00 in0.0 mm 0.00 in/hr0.0 mm/hr 0.00 in0.0 mm
02:27 AM 82.2°F27.9°C 33.1°F0.6°C 17% 8.9 mph WSW14.3 kmh WSW 16.1 mph25.9 kmh -338605.1 mb 0.00 in0.0 mm 0.00 in/hr0.0 mm/hr 0.00 in0.0 mm
02:32 AM 82.4°F28.0°C 33.3°F0.7°C 17% 11.0 mph WSW17.7 kmh WSW 6.9 mph11.1 kmh -338605.1 mb 0.00 in0.0 mm 0.00 in/hr0.0 mm/hr 0.00 in0.0 mm
02:37 AM 82.6°F28.1°C 33.4°F0.8°C 17% 11.0 mph SW17.7 kmh SW 6.9 mph11.1 kmh -338605.1 mb 0.00 in0.0 mm 0.00 in/hr0.0 mm/hr 0.00 in0.0 mm
02:42 AM 82.4°F28.0°C 33.3°F0.7°C 17% 10.1 mph WSW16.3 kmh WSW 13.0 mph20.9 kmh -338605.1 mb 0.00 in0.0 mm 0.00 in/hr0.0 mm/hr 0.00 in0.0 mm
02:47 AM 82.2°F27.9°C 33.1°F0.6°C 17% 12.1 mph WSW19.5 kmh WSW 17.9 mph28.8 kmh -338605.1 mb 0.00 in0.0 mm 0.00 in/hr0.0 mm/hr 0.00 in0.0 mm
02:52 AM 82.2°F27.9°C 33.1°F0.6°C 17% 15.0 mph WSW24.1 kmh WSW 17.0 mph27.4 kmh -338605.1 mb 0.00 in0.0 mm 0.00 in/hr0.0 mm/hr 0.00 in0.0 mm
02:57 AM 82.2°F27.9°C 33.1°F0.6°C 17% 15.0 mph WSW24.1 kmh WSW 14.1 mph22.7 kmh -338605.1 mb 0.00 in0.0 mm 0.00 in/hr0.0 mm/hr 0.00 in0.0 mm
03:02 AM 82.0°F27.8°C 32.9°F0.5°C 17% 14.1 mph WSW22.7 kmh WSW 8.1 mph13.0 kmh -338605.1 mb 0.00 in0.0 mm 0.00 in/hr0.0 mm/hr 0.00 in0.0 mm
03:07 AM 82.0°F27.8°C 31.5°F-0.3°C 16% 13.0 mph SW20.9 kmh SW 17.9 mph28.8 kmh -338605.1 mb 0.00 in0.0 mm 0.00 in/hr0.0 mm/hr 0.00 in0.0 mm
03:12 AM 82.2°F27.9°C 30.0°F-1.1°C 15% 13.0 mph WSW20.9 kmh WSW 12.1 mph19.5 kmh -338605.1 mb 0.00 in0.0 mm 0.00 in/hr0.0 mm/hr 0.00 in0.0 mm
03:17 AM 82.2°F27.9°C 31.6°F-0.2°C 16% 12.1 mph SW19.5 kmh SW 6.0 mph9.7 kmh -338605.1 mb 0.00 in0.0 mm 0.00 in/hr0.0 mm/hr 0.00 in0.0 mm
03:22 AM 82.2°F27.9°C 31.6°F-0.2°C 16% 10.1 mph SW16.3 kmh SW 6.0 mph9.7 kmh -338605.1 mb 0.00 in0.0 mm 0.00 in/hr0.0 mm/hr 0.00 in0.0 mm
03:27 AM 82.2°F27.9°C 31.6°F-0.2°C 16% 10.1 mph WSW16.3 kmh WSW 13.0 mph20.9 kmh -338605.1 mb 0.00 in0.0 mm 0.00 in/hr0.0 mm/hr 0.00 in0.0 mm
03:32 AM 82.0°F27.8°C 29.8°F-1.2°C 15% 11.0 mph WSW17.7 kmh WSW 4.0 mph6.4 kmh -338605.1 mb 0.00 in0.0 mm 0.00 in/hr0.0 mm/hr 0.00 in0.0 mm
03:37 AM 82.0°F27.8°C 31.5°F-0.3°C 16% 8.9 mph SW14.3 kmh SW 6.9 mph11.1 kmh -338605.1 mb 0.00 in0.0 mm 0.00 in/hr0.0 mm/hr 0.00 in0.0 mm
03:42 AM 82.0°F27.8°C 29.8°F-1.2°C 15% 8.1 mph WSW13.0 kmh WSW 8.9 mph14.3 kmh -338605.1 mb 0.00 in0.0 mm 0.00 in/hr0.0 mm/hr 0.00 in0.0 mm
03:47 AM 81.9°F27.7°C 29.7°F-1.3°C 15% 8.9 mph WSW14.3 kmh WSW 12.1 mph19.5 kmh -338605.1 mb 0.00 in0.0 mm 0.00 in/hr0.0 mm/hr 0.00 in0.0 mm
03:52 AM 81.9°F27.7°C 29.7°F-1.3°C 15% 12.1 mph SW19.5 kmh SW 15.0 mph24.1 kmh -338605.1 mb 0.00 in0.0 mm 0.00 in/hr0.0 mm/hr 0.00 in0.0 mm
03:57 AM 81.9°F27.7°C 28.0°F-2.2°C 14% 12.1 mph WSW19.5 kmh WSW 8.1 mph13.0 kmh -338605.1 mb 0.00 in0.0 mm 0.00 in/hr0.0 mm/hr 0.00 in0.0 mm
04:02 AM 82.0°F27.8°C 29.8°F-1.2°C 15% 8.9 mph WSW14.3 kmh WSW 12.1 mph19.5 kmh -338605.1 mb 0.00 in0.0 mm 0.00 in/hr0.0 mm/hr 0.00 in0.0 mm
04:07 AM 81.9°F27.7°C 29.7°F-1.3°C 15% 8.9 mph WSW14.3 kmh WSW 8.9 mph14.3 kmh -338605.1 mb 0.00 in0.0 mm 0.00 in/hr0.0 mm/hr 0.00 in0.0 mm
04:12 AM 81.9°F27.7°C 29.7°F-1.3°C 15% 8.9 mph SSW14.3 kmh SSW 6.9 mph11.1 kmh -338605.1 mb 0.00 in0.0 mm 0.00 in/hr0.0 mm/hr 0.00 in0.0 mm
04:17 AM 81.9°F27.7°C 29.7°F-1.3°C 15% 6.9 mph SW11.1 kmh SW 8.1 mph13.0 kmh -338605.1 mb 0.00 in0.0 mm 0.00 in/hr0.0 mm/hr 0.00 in0.0 mm
04:22 AM 81.5°F27.5°C 29.5°F-1.4°C 15% 6.0 mph SW9.7 kmh SW 8.9 mph14.3 kmh -338605.1 mb 0.00 in0.0 mm 0.00 in/hr0.0 mm/hr 0.00 in0.0 mm
04:27 AM 81.3°F27.4°C 27.5°F-2.5°C 14% 8.1 mph WSW13.0 kmh WSW 4.9 mph7.9 kmh -338605.1 mb 0.00 in0.0 mm 0.00 in/hr0.0 mm/hr 0.00 in0.0 mm
04:32 AM 81.1°F27.3°C 27.5°F-2.5°C 14% 8.1 mph WSW13.0 kmh WSW 8.1 mph13.0 kmh -338605.1 mb 0.00 in0.0 mm 0.00 in/hr0.0 mm/hr 0.00 in0.0 mm
04:37 AM 81.3°F27.4°C 27.5°F-2.5°C 14% 6.9 mph W11.1 kmh W 4.0 mph6.4 kmh -338605.1 mb 0.00 in0.0 mm 0.00 in/hr0.0 mm/hr 0.00 in0.0 mm
04:42 AM 81.7°F27.6°C 27.9°F-2.3°C 14% 4.9 mph W7.9 kmh W 4.0 mph6.4 kmh -338605.1 mb 0.00 in0.0 mm 0.00 in/hr0.0 mm/hr 0.00 in0.0 mm
04:47 AM 81.3°F27.4°C 27.5°F-2.5°C 14% 6.0 mph WSW9.7 kmh WSW 10.1 mph16.3 kmh -338605.1 mb 0.00 in0.0 mm 0.00 in/hr0.0 mm/hr 0.00 in0.0 mm
04:52 AM 81.1°F27.3°C 27.5°F-2.5°C 14% 6.0 mph WSW9.7 kmh WSW 2.9 mph4.7 kmh -338605.1 mb 0.00 in0.0 mm 0.00 in/hr0.0 mm/hr 0.00 in0.0 mm
04:57 AM 81.1°F27.3°C 27.5°F-2.5°C 14% 4.9 mph SW7.9 kmh SW 6.0 mph9.7 kmh -338605.1 mb 0.00 in0.0 mm 0.00 in/hr0.0 mm/hr 0.00 in0.0 mm
05:02 AM 80.8°F27.1°C 27.1°F-2.7°C 14% 4.9 mph SW7.9 kmh SW 6.0 mph9.7 kmh -338605.1 mb 0.00 in0.0 mm 0.00 in/hr0.0 mm/hr 0.00 in0.0 mm
05:07 AM 80.6°F27.0°C 27.0°F-2.8°C 14% 6.0 mph SSW9.7 kmh SSW 6.0 mph9.7 kmh -338605.1 mb 0.00 in0.0 mm 0.00 in/hr0.0 mm/hr 0.00 in0.0 mm
05:12 AM 80.4°F26.9°C 26.8°F-2.9°C 14% 2.9 mph SSW4.7 kmh SSW 2.0 mph3.2 kmh -338605.1 mb 0.00 in0.0 mm 0.00 in/hr0.0 mm/hr 0.00 in0.0 mm
05:17 AM 80.2°F26.8°C 26.8°F-2.9°C 14% 2.0 mph SSW3.2 kmh SSW 2.0 mph3.2 kmh -338605.1 mb 0.00 in0.0 mm 0.00 in/hr0.0 mm/hr 0.00 in0.0 mm
05:22 AM 80.1°F26.7°C 26.6°F-3.0°C 14% 2.0 mph SSW3.2 kmh SSW 2.0 mph3.2 kmh -338605.1 mb 0.00 in0.0 mm 0.00 in/hr0.0 mm/hr 0.00 in0.0 mm
05:27 AM 79.9°F26.6°C 26.4°F-3.1°C 14% 2.0 mph SSW3.2 kmh SSW 2.9 mph4.7 kmh -338605.1 mb 0.00 in0.0 mm 0.00 in/hr0.0 mm/hr 0.00 in0.0 mm
05:32 AM 79.7°F26.5°C 28.0°F-2.2°C 15% 2.0 mph SSW3.2 kmh SSW 0.9 mph1.4 kmh -338605.1 mb 0.00 in0.0 mm 0.00 in/hr0.0 mm/hr 0.00 in0.0 mm
05:37 AM 79.5°F26.4°C 27.9°F-2.3°C 15% 2.0 mph SSW3.2 kmh SSW 4.0 mph6.4 kmh -338605.1 mb 0.00 in0.0 mm 0.00 in/hr0.0 mm/hr 0.00 in0.0 mm
05:42 AM 79.2°F26.2°C 27.5°F-2.5°C 15% 2.9 mph SSW4.7 kmh SSW 2.0 mph3.2 kmh -338605.1 mb 0.00 in0.0 mm 0.00 in/hr0.0 mm/hr 0.00 in0.0 mm
05:47 AM 79.0°F26.1°C 27.3°F-2.6°C 15% 2.0 mph SSW3.2 kmh SSW 0.9 mph1.4 kmh -338605.1 mb 0.00 in0.0 mm 0.00 in/hr0.0 mm/hr 0.00 in0.0 mm
05:52 AM 78.8°F26.0°C 27.3°F-2.6°C 15% 2.0 mph SSW3.2 kmh SSW 4.0 mph6.4 kmh -338605.1 mb 0.00 in0.0 mm 0.00 in/hr0.0 mm/hr 0.00 in0.0 mm
05:57 AM 78.4°F25.8°C 27.0°F-2.8°C 15% 2.9 mph SSW4.7 kmh SSW 4.0 mph6.4 kmh -338605.1 mb 0.00 in0.0 mm 0.00 in/hr0.0 mm/hr 0.00 in0.0 mm
06:02 AM 78.1°F25.6°C 26.6°F-3.0°C 15% 4.0 mph SSW6.4 kmh SSW 2.0 mph3.2 kmh -338605.1 mb 0.00 in0.0 mm 0.00 in/hr0.0 mm/hr 0.00 in0.0 mm
06:07 AM 77.9°F25.5°C 26.6°F-3.0°C 15% 4.0 mph SSW6.4 kmh SSW 0.9 mph1.4 kmh -338605.1 mb 0.00 in0.0 mm 0.00 in/hr0.0 mm/hr 0.00 in0.0 mm
06:12 AM 77.5°F25.3°C 27.9°F-2.3°C 16% 2.9 mph SSW4.7 kmh SSW 2.9 mph4.7 kmh -338605.1 mb 0.00 in0.0 mm 0.00 in/hr0.0 mm/hr 0.00 in0.0 mm
06:17 AM 77.4°F25.2°C 27.7°F-2.4°C 16% 2.9 mph SSW4.7 kmh SSW 4.0 mph6.4 kmh -338605.1 mb 0.00 in0.0 mm 0.00 in/hr0.0 mm/hr 0.00 in0.0 mm
06:22 AM 77.2°F25.1°C 27.5°F-2.5°C 16% 4.0 mph S6.4 kmh S 4.0 mph6.4 kmh -338605.1 mb 0.00 in0.0 mm 0.00 in/hr0.0 mm/hr 0.00 in0.0 mm
06:27 AM 76.8°F24.9°C 27.1°F-2.7°C 16% 4.9 mph S7.9 kmh S 2.0 mph3.2 kmh -338605.1 mb 0.00 in0.0 mm 0.00 in/hr0.0 mm/hr 0.00 in0.0 mm
06:32 AM 76.6°F24.8°C 28.6°F-1.9°C 17% 4.9 mph S7.9 kmh S 2.0 mph3.2 kmh -338605.1 mb 0.00 in0.0 mm 0.00 in/hr0.0 mm/hr 0.00 in0.0 mm
06:37 AM 76.3°F24.6°C 28.2°F-2.1°C 17% 4.0 mph S6.4 kmh S 4.9 mph7.9 kmh -338605.1 mb 0.00 in0.0 mm 0.00 in/hr0.0 mm/hr 0.00 in0.0 mm
06:42 AM 76.3°F24.6°C 26.8°F-2.9°C 16% 4.9 mph S7.9 kmh S 4.0 mph6.4 kmh -338605.1 mb 0.00 in0.0 mm 0.00 in/hr0.0 mm/hr 0.00 in0.0 mm
06:47 AM 76.5°F24.7°C 27.0°F-2.8°C 16% 4.0 mph S6.4 kmh S 6.0 mph9.7 kmh -338605.1 mb 0.00 in0.0 mm 0.00 in/hr0.0 mm/hr 0.00 in0.0 mm
06:52 AM 76.8°F24.9°C 27.1°F-2.7°C 16% 4.0 mph S6.4 kmh S 6.0 mph9.7 kmh -338605.1 mb 0.00 in0.0 mm 0.00 in/hr0.0 mm/hr 0.00 in0.0 mm
06:57 AM 77.5°F25.3°C 27.9°F-2.3°C 16% 4.9 mph S7.9 kmh S 4.0 mph6.4 kmh -338605.1 mb 0.00 in0.0 mm 0.00 in/hr0.0 mm/hr 0.00 in0.0 mm
07:02 AM 78.1°F25.6°C 26.6°F-3.0°C 15% 4.9 mph SW7.9 kmh SW 2.0 mph3.2 kmh -338605.1 mb 0.00 in0.0 mm 0.00 in/hr0.0 mm/hr 0.00 in0.0 mm
07:07 AM 78.4°F25.8°C 28.6°F-1.9°C 16% 4.0 mph SW6.4 kmh SW 2.0 mph3.2 kmh -338605.1 mb 0.00 in0.0 mm 0.00 in/hr0.0 mm/hr 0.00 in0.0 mm
07:12 AM 79.0°F26.1°C 28.9°F-1.7°C 16% 4.0 mph SW6.4 kmh SW 4.0 mph6.4 kmh -338605.1 mb 0.00 in0.0 mm 0.00 in/hr0.0 mm/hr 0.00 in0.0 mm
07:17 AM 79.2°F26.2°C 29.1°F-1.6°C 16% 4.0 mph SW6.4 kmh SW 4.9 mph7.9 kmh -338605.1 mb 0.00 in0.0 mm 0.00 in/hr0.0 mm/hr 0.00 in0.0 mm
07:22 AM 79.5°F26.4°C 27.9°F-2.3°C 15% 4.0 mph SW6.4 kmh SW 4.0 mph6.4 kmh -338605.1 mb 0.00 in0.0 mm 0.00 in/hr0.0 mm/hr 0.00 in0.0 mm
07:27 AM 80.1°F26.7°C 29.8°F-1.2°C 16% 4.0 mph WSW6.4 kmh WSW 4.9 mph7.9 kmh -338605.1 mb 0.00 in0.0 mm 0.00 in/hr0.0 mm/hr 0.00 in0.0 mm
07:32 AM 80.8°F27.1°C 28.8°F-1.8°C 15% 4.9 mph WSW7.9 kmh WSW 4.9 mph7.9 kmh -338605.1 mb 0.00 in0.0 mm 0.00 in/hr0.0 mm/hr 0.00 in0.0 mm
07:37 AM 81.7°F27.6°C 27.9°F-2.3°C 14% 6.0 mph WSW9.7 kmh WSW 4.9 mph7.9 kmh -338605.1 mb 0.00 in0.0 mm 0.00 in/hr0.0 mm/hr 0.00 in0.0 mm
07:42 AM 82.0°F27.8°C 28.2°F-2.1°C 14% 4.9 mph WSW7.9 kmh WSW 2.0 mph3.2 kmh -338605.1 mb 0.00 in0.0 mm 0.00 in/hr0.0 mm/hr 0.00 in0.0 mm
07:47 AM 83.1°F28.4°C 27.1°F-2.7°C 13% 2.9 mph WSW4.7 kmh WSW 4.0 mph6.4 kmh -338605.1 mb 0.00 in0.0 mm 0.00 in/hr0.0 mm/hr 0.00 in0.0 mm
07:52 AM 83.8°F28.8°C 27.7°F-2.4°C 13% 2.9 mph WSW4.7 kmh WSW 2.9 mph4.7 kmh -338605.1 mb 0.00 in0.0 mm 0.00 in/hr0.0 mm/hr 0.00 in0.0 mm
07:57 AM 84.6°F29.2°C 28.4°F-2.0°C 13% 4.0 mph SW6.4 kmh SW 6.0 mph9.7 kmh -338605.1 mb 0.00 in0.0 mm 0.00 in/hr0.0 mm/hr 0.00 in0.0 mm
08:02 AM 84.7°F29.3°C 28.4°F-2.0°C 13% 4.0 mph SSW6.4 kmh SSW 2.9 mph4.7 kmh -338605.1 mb 0.00 in0.0 mm 0.00 in/hr0.0 mm/hr 0.00 in0.0 mm
08:07 AM 85.3°F29.6°C 27.0°F-2.8°C 12% 4.0 mph SW6.4 kmh SW 2.9 mph4.7 kmh -338605.1 mb 0.00 in0.0 mm 0.00 in/hr0.0 mm/hr 0.00 in0.0 mm
08:12 AM 85.8°F29.9°C 27.3°F-2.6°C 12% 4.0 mph SW6.4 kmh SW 2.0 mph3.2 kmh -338605.1 mb 0.00 in0.0 mm 0.00 in/hr0.0 mm/hr 0.00 in0.0 mm
08:17 AM 86.0°F30.0°C 27.5°F-2.5°C 12% 2.9 mph SSW4.7 kmh SSW 0.9 mph1.4 kmh -338605.1 mb 0.00 in0.0 mm 0.00 in/hr0.0 mm/hr 0.00 in0.0 mm
08:22 AM 86.4°F30.2°C 27.7°F-2.4°C 12% 2.0 mph SSW3.2 kmh SSW 4.0 mph6.4 kmh -338605.1 mb 0.00 in0.0 mm 0.00 in/hr0.0 mm/hr 0.00 in0.0 mm
08:27 AM 87.1°F30.6°C 26.2°F-3.2°C 11% 2.9 mph W4.7 kmh W 2.0 mph3.2 kmh -338605.1 mb 0.00 in0.0 mm 0.00 in/hr0.0 mm/hr 0.00 in0.0 mm
08:32 AM 87.6°F30.9°C 24.3°F-4.3°C 10% 4.9 mph W7.9 kmh W 4.9 mph7.9 kmh -338605.1 mb 0.00 in0.0 mm 0.00 in/hr0.0 mm/hr 0.00 in0.0 mm
08:37 AM 87.8°F31.0°C 24.4°F-4.2°C 10% 4.0 mph W6.4 kmh W 2.0 mph3.2 kmh -338605.1 mb 0.00 in0.0 mm 0.00 in/hr0.0 mm/hr 0.00 in0.0 mm
08:42 AM 87.4°F30.8°C 26.4°F-3.1°C 11% 2.9 mph W4.7 kmh W 2.0 mph3.2 kmh -338605.1 mb 0.00 in0.0 mm 0.00 in/hr0.0 mm/hr 0.00 in0.0 mm
08:47 AM 87.8°F31.0°C 26.8°F-2.9°C 11% 2.0 mph W3.2 kmh W 2.9 mph4.7 kmh -338605.1 mb 0.00 in0.0 mm 0.00 in/hr0.0 mm/hr 0.00 in0.0 mm
08:52 AM 88.3°F31.3°C 24.8°F-4.0°C 10% 2.0 mph W3.2 kmh W 2.0 mph3.2 kmh -338605.1 mb 0.00 in0.0 mm 0.00 in/hr0.0 mm/hr 0.00 in0.0 mm
08:57 AM 88.9°F31.6°C 27.5°F-2.5°C 11% 2.0 mph W3.2 kmh W 0.9 mph1.4 kmh -338605.1 mb 0.00 in0.0 mm 0.00 in/hr0.0 mm/hr 0.00 in0.0 mm
09:02 AM 88.9°F31.6°C 27.5°F-2.5°C 11% 0.9 mph W1.4 kmh W 2.0 mph3.2 kmh -338605.1 mb 0.00 in0.0 mm 0.00 in/hr0.0 mm/hr 0.00 in0.0 mm
09:07 AM 88.9°F31.6°C 25.3°F-3.7°C 10% 0.9 mph W1.4 kmh W -- -338605.1 mb 0.00 in0.0 mm 0.00 in/hr0.0 mm/hr 0.00 in0.0 mm
09:12 AM 89.2°F31.8°C 23.0°F-5.0°C 9% 0.9 mph W1.4 kmh W 0.9 mph1.4 kmh -338605.1 mb 0.00 in0.0 mm 0.00 in/hr0.0 mm/hr 0.00 in0.0 mm
09:17 AM 89.4°F31.9°C 23.2°F-4.9°C 9% 0.9 mph W1.4 kmh W 0.9 mph1.4 kmh -338605.1 mb 0.00 in0.0 mm 0.00 in/hr0.0 mm/hr 0.00 in0.0 mm
09:22 AM 90.0°F32.2°C 28.4°F-2.0°C 11% 2.0 mph W3.2 kmh W 4.9 mph7.9 kmh -338605.1 mb 0.00 in0.0 mm 0.00 in/hr0.0 mm/hr 0.00 in0.0 mm
09:27 AM 90.0°F32.2°C 26.1°F-3.3°C 10% 2.9 mph W4.7 kmh W 4.9 mph7.9 kmh -338605.1 mb 0.00 in0.0 mm 0.00 in/hr0.0 mm/hr 0.00 in0.0 mm
09:32 AM 90.3°F32.4°C 23.9°F-4.5°C 9% 4.0 mph W6.4 kmh W 0.9 mph1.4 kmh -338605.1 mb 0.00 in0.0 mm 0.00 in/hr0.0 mm/hr 0.00 in0.0 mm
09:37 AM 90.5°F32.5°C 26.6°F-3.0°C 10% 2.9 mph W4.7 kmh W 4.9 mph7.9 kmh -338605.1 mb 0.00 in0.0 mm 0.00 in/hr0.0 mm/hr 0.00 in0.0 mm
09:42 AM 90.9°F32.7°C 24.3°F-4.3°C 9% 2.9 mph W4.7 kmh W 2.9 mph4.7 kmh -338605.1 mb 0.00 in0.0 mm 0.00 in/hr0.0 mm/hr 0.00 in0.0 mm
09:47 AM 91.0°F32.8°C 27.0°F-2.8°C 10% 2.9 mph W4.7 kmh W 2.0 mph3.2 kmh -338605.1 mb 0.00 in0.0 mm 0.00 in/hr0.0 mm/hr 0.00 in0.0 mm
09:52 AM 91.6°F33.1°C 24.8°F-4.0°C 9% 2.9 mph W4.7 kmh W 2.9 mph4.7 kmh -338605.1 mb 0.00 in0.0 mm 0.00 in/hr0.0 mm/hr 0.00 in0.0 mm
09:57 AM 91.6°F33.1°C 21.9°F-5.6°C 8% 2.0 mph W3.2 kmh W 2.0 mph3.2 kmh -338605.1 mb 0.00 in0.0 mm 0.00 in/hr0.0 mm/hr 0.00 in0.0 mm
10:02 AM 91.9°F33.3°C 22.3°F-5.4°C 8% 2.0 mph W3.2 kmh W -- -338605.1 mb 0.00 in0.0 mm 0.00 in/hr0.0 mm/hr 0.00 in0.0 mm
10:07 AM 92.5°F33.6°C 22.6°F-5.2°C 8% 0.9 mph W1.4 kmh W 0.9 mph1.4 kmh -338605.1 mb 0.00 in0.0 mm 0.00 in/hr0.0 mm/hr 0.00 in0.0 mm
10:12 AM 93.4°F34.1°C 23.4°F-4.8°C 8% 0.9 mph WNW1.4 kmh WNW 2.0 mph3.2 kmh -338605.1 mb 0.00 in0.0 mm 0.00 in/hr0.0 mm/hr 0.00 in0.0 mm
10:17 AM 93.9°F34.4°C 20.5°F-6.4°C 7% 0.9 mph WNW1.4 kmh WNW -- -338605.1 mb 0.00 in0.0 mm 0.00 in/hr0.0 mm/hr 0.00 in0.0 mm
10:22 AM 93.9°F34.4°C 20.5°F-6.4°C 7% 0.9 mph WNW1.4 kmh WNW 2.9 mph4.7 kmh -338605.1 mb 0.00 in0.0 mm 0.00 in/hr0.0 mm/hr 0.00 in0.0 mm
10:27 AM 93.7°F34.3°C 23.5°F-4.7°C 8% 0.9 mph WNW1.4 kmh WNW 2.0 mph3.2 kmh -338605.1 mb 0.00 in0.0 mm 0.00 in/hr0.0 mm/hr 0.00 in0.0 mm
10:32 AM 94.3°F34.6°C 20.8°F-6.2°C 7% 2.0 mph WNW3.2 kmh WNW 2.0 mph3.2 kmh -338605.1 mb 0.00 in0.0 mm 0.00 in/hr0.0 mm/hr 0.00 in0.0 mm
10:37 AM 95.0°F35.0°C 24.4°F-4.2°C 8% 2.0 mph ENE3.2 kmh ENE 4.0 mph6.4 kmh -338605.1 mb 0.00 in0.0 mm 0.00 in/hr0.0 mm/hr 0.00 in0.0 mm
10:42 AM 95.7°F35.4°C 21.9°F-5.6°C 7% 2.9 mph ENE4.7 kmh ENE 0.9 mph1.4 kmh -338605.1 mb 0.00 in0.0 mm 0.00 in/hr0.0 mm/hr 0.00 in0.0 mm
10:47 AM 95.7°F35.4°C 21.9°F-5.6°C 7% 2.0 mph ENE3.2 kmh ENE 2.9 mph4.7 kmh -338605.1 mb 0.00 in0.0 mm 0.00 in/hr0.0 mm/hr 0.00 in0.0 mm
10:52 AM 96.3°F35.7°C 22.3°F-5.4°C 7% 2.0 mph ENE3.2 kmh ENE 2.0 mph3.2 kmh -338605.1 mb 0.00 in0.0 mm 0.00 in/hr0.0 mm/hr 0.00 in0.0 mm
10:57 AM 96.8°F36.0°C 22.6°F-5.2°C 7% 4.9 mph ENE7.9 kmh ENE 4.9 mph7.9 kmh -338605.1 mb 0.00 in0.0 mm 0.00 in/hr0.0 mm/hr 0.00 in0.0 mm
11:02 AM 96.4°F35.8°C 18.7°F-7.4°C 6% 4.0 mph NNE6.4 kmh NNE 0.9 mph1.4 kmh -338605.1 mb 0.00 in0.0 mm 0.00 in/hr0.0 mm/hr 0.00 in0.0 mm
11:07 AM 96.4°F35.8°C 18.7°F-7.4°C 6% 2.9 mph NE4.7 kmh NE 2.9 mph4.7 kmh -338605.1 mb 0.00 in0.0 mm 0.00 in/hr0.0 mm/hr 0.00 in0.0 mm
11:12 AM 96.6°F35.9°C 18.9°F-7.3°C 6% 2.9 mph NE4.7 kmh NE 4.9 mph7.9 kmh -338605.1 mb 0.00 in0.0 mm 0.00 in/hr0.0 mm/hr 0.00 in0.0 mm
11:17 AM 96.6°F35.9°C 18.9°F-7.3°C 6% 4.0 mph NE6.4 kmh NE 2.0 mph3.2 kmh -338605.1 mb 0.00 in0.0 mm 0.00 in/hr0.0 mm/hr 0.00 in0.0 mm
11:22 AM 96.4°F35.8°C 18.7°F-7.4°C 6% 2.9 mph NE4.7 kmh NE 2.9 mph4.7 kmh -338605.1 mb 0.00 in0.0 mm 0.00 in/hr0.0 mm/hr 0.00 in0.0 mm
11:27 AM 97.0°F36.1°C 19.2°F-7.1°C 6% 2.9 mph E4.7 kmh E 8.1 mph13.0 kmh -338605.1 mb 0.00 in0.0 mm 0.00 in/hr0.0 mm/hr 0.00 in0.0 mm
11:32 AM 97.3°F36.3°C 19.4°F-7.0°C 6% 4.0 mph E6.4 kmh E 4.9 mph7.9 kmh -338605.1 mb 0.00 in0.0 mm 0.00 in/hr0.0 mm/hr 0.00 in0.0 mm
11:37 AM 97.9°F36.6°C 19.8°F-6.8°C 6% 4.9 mph ESE7.9 kmh ESE 4.9 mph7.9 kmh -338605.1 mb 0.00 in0.0 mm 0.00 in/hr0.0 mm/hr 0.00 in0.0 mm
11:42 AM 98.2°F36.8°C 19.9°F-6.7°C 6% 4.0 mph E6.4 kmh E 4.9 mph7.9 kmh -338605.1 mb 0.00 in0.0 mm 0.00 in/hr0.0 mm/hr 0.00 in0.0 mm
11:47 AM 98.6°F37.0°C 20.3°F-6.5°C 6% 2.9 mph E4.7 kmh E 2.0 mph3.2 kmh -338605.1 mb 0.00 in0.0 mm 0.00 in/hr0.0 mm/hr 0.00 in0.0 mm
11:52 AM 98.8°F37.1°C 24.1°F-4.4°C 7% 2.9 mph E4.7 kmh E 4.9 mph7.9 kmh -338605.1 mb 0.00 in0.0 mm 0.00 in/hr0.0 mm/hr 0.00 in0.0 mm
11:57 AM 99.1°F37.3°C 20.7°F-6.3°C 6% 2.9 mph E4.7 kmh E 2.9 mph4.7 kmh -338605.1 mb 0.00 in0.0 mm 0.00 in/hr0.0 mm/hr 0.00 in0.0 mm
12:02 PM 99.5°F37.5°C 20.8°F-6.2°C 6% 6.0 mph ESE9.7 kmh ESE 2.0 mph3.2 kmh -338605.1 mb 0.00 in0.0 mm 0.00 in/hr0.0 mm/hr 0.00 in0.0 mm
12:07 PM 99.7°F37.6°C 21.0°F-6.1°C 6% 4.0 mph ESE6.4 kmh ESE -- -338605.1 mb 0.00 in0.0 mm 0.00 in/hr0.0 mm/hr 0.00 in0.0 mm
12:12 PM 99.7°F37.6°C 21.0°F-6.1°C 6% 2.9 mph E4.7 kmh E 2.9 mph4.7 kmh -338605.1 mb 0.00 in0.0 mm 0.00 in/hr0.0 mm/hr 0.00 in0.0 mm
12:17 PM 100.2°F37.9°C 21.4°F-5.9°C 6% 4.9 mph E7.9 kmh E 4.0 mph6.4 kmh -338605.1 mb 0.00 in0.0 mm 0.00 in/hr0.0 mm/hr 0.00 in0.0 mm
12:22 PM 100.6°F38.1°C 21.7°F-5.7°C 6% 6.0 mph SE9.7 kmh SE 8.9 mph14.3 kmh -338605.1 mb 0.00 in0.0 mm 0.00 in/hr0.0 mm/hr 0.00 in0.0 mm
12:27 PM 100.6°F38.1°C 21.7°F-5.7°C 6% 4.9 mph E7.9 kmh E 2.9 mph4.7 kmh -338605.1 mb 0.00 in0.0 mm 0.00 in/hr0.0 mm/hr 0.00 in0.0 mm
12:32 PM 100.6°F38.1°C 21.7°F-5.7°C 6% 4.0 mph E6.4 kmh E -- -338605.1 mb 0.00 in0.0 mm 0.00 in/hr0.0 mm/hr 0.00 in0.0 mm
12:37 PM 100.2°F37.9°C 25.2°F-3.8°C 7% 2.0 mph E3.2 kmh E 2.0 mph3.2 kmh -338605.1 mb 0.00 in0.0 mm 0.00 in/hr0.0 mm/hr 0.00 in0.0 mm
12:42 PM 99.9°F37.7°C 21.2°F-6.0°C 6% 2.0 mph ENE3.2 kmh ENE 2.0 mph3.2 kmh -338605.1 mb 0.00 in0.0 mm 0.00 in/hr0.0 mm/hr 0.00 in0.0 mm
12:47 PM 100.6°F38.1°C 21.7°F-5.7°C 6% 6.0 mph E9.7 kmh E 2.0 mph3.2 kmh -338605.1 mb 0.00 in0.0 mm 0.00 in/hr0.0 mm/hr 0.00 in0.0 mm
12:52 PM 101.1°F38.4°C 22.1°F-5.5°C 6% 6.9 mph E11.1 kmh E 6.9 mph11.1 kmh -338605.1 mb 0.00 in0.0 mm 0.00 in/hr0.0 mm/hr 0.00 in0.0 mm
12:57 PM 101.5°F38.6°C 22.3°F-5.4°C 6% 6.0 mph ENE9.7 kmh ENE 4.9 mph7.9 kmh -338605.1 mb 0.00 in0.0 mm 0.00 in/hr0.0 mm/hr 0.00 in0.0 mm
01:02 PM 101.8°F38.8°C 22.6°F-5.2°C 6% 8.1 mph E13.0 kmh E 8.9 mph14.3 kmh -338605.1 mb 0.00 in0.0 mm 0.00 in/hr0.0 mm/hr 0.00 in0.0 mm
01:07 PM 101.7°F38.7°C 22.5°F-5.3°C 6% 8.1 mph ENE13.0 kmh ENE 6.9 mph11.1 kmh -338605.1 mb 0.00 in0.0 mm 0.00 in/hr0.0 mm/hr 0.00 in0.0 mm
01:12 PM 101.5°F38.6°C 22.3°F-5.4°C 6% 4.9 mph ENE7.9 kmh ENE 6.9 mph11.1 kmh -338605.1 mb 0.00 in0.0 mm 0.00 in/hr0.0 mm/hr 0.00 in0.0 mm
01:17 PM 101.5°F38.6°C 22.3°F-5.4°C 6% 4.0 mph NE6.4 kmh NE 2.9 mph4.7 kmh -338605.1 mb 0.00 in0.0 mm 0.00 in/hr0.0 mm/hr 0.00 in0.0 mm
01:22 PM 101.8°F38.8°C 22.6°F-5.2°C 6% 6.0 mph ESE9.7 kmh ESE 8.1 mph13.0 kmh -338605.1 mb 0.00 in0.0 mm 0.00 in/hr0.0 mm/hr 0.00 in0.0 mm
01:27 PM 102.2°F39.0°C 26.6°F-3.0°C 7% 6.9 mph SSE11.1 kmh SSE 4.0 mph6.4 kmh -338605.1 mb 0.00 in0.0 mm 0.00 in/hr0.0 mm/hr 0.00 in0.0 mm
01:32 PM 102.2°F39.0°C 22.8°F-5.1°C 6% 6.9 mph SE11.1 kmh SE 0.9 mph1.4 kmh -338605.1 mb 0.00 in0.0 mm 0.00 in/hr0.0 mm/hr 0.00 in0.0 mm
01:37 PM 102.4°F39.1°C 23.0°F-5.0°C 6% 6.0 mph SSE9.7 kmh SSE 13.0 mph20.9 kmh -338605.1 mb 0.00 in0.0 mm 0.00 in/hr0.0 mm/hr 0.00 in0.0 mm
01:42 PM 102.4°F39.1°C 23.0°F-5.0°C 6% 6.9 mph SSE11.1 kmh SSE 10.1 mph16.3 kmh -338605.1 mb 0.00 in0.0 mm 0.00 in/hr0.0 mm/hr 0.00 in0.0 mm
01:47 PM 102.2°F39.0°C 22.8°F-5.1°C 6% 10.1 mph SE16.3 kmh SE 6.9 mph11.1 kmh -338605.1 mb 0.00 in0.0 mm 0.00 in/hr0.0 mm/hr 0.00 in0.0 mm
01:52 PM 102.4°F39.1°C 18.7°F-7.4°C 5% 8.9 mph SE14.3 kmh SE 6.0 mph9.7 kmh -338605.1 mb 0.00 in0.0 mm 0.00 in/hr0.0 mm/hr 0.00 in0.0 mm
01:57 PM 102.7°F39.3°C 18.9°F-7.3°C 5% 6.0 mph SE9.7 kmh SE -- -338605.1 mb 0.00 in0.0 mm 0.00 in/hr0.0 mm/hr 0.00 in0.0 mm
02:02 PM 102.9°F39.4°C 23.4°F-4.8°C 6% 4.9 mph S7.9 kmh S 14.1 mph22.7 kmh -338605.1 mb 0.00 in0.0 mm 0.00 in/hr0.0 mm/hr 0.00 in0.0 mm
02:07 PM 102.9°F39.4°C 19.0°F-7.2°C 5% 8.1 mph S13.0 kmh S 8.9 mph14.3 kmh -338605.1 mb 0.00 in0.0 mm 0.00 in/hr0.0 mm/hr 0.00 in0.0 mm
02:12 PM 102.9°F39.4°C 23.4°F-4.8°C 6% 8.9 mph SE14.3 kmh SE 16.1 mph25.9 kmh -338605.1 mb 0.00 in0.0 mm 0.00 in/hr0.0 mm/hr 0.00 in0.0 mm
02:17 PM 103.1°F39.5°C 19.2°F-7.1°C 5% 10.1 mph SE16.3 kmh SE 6.0 mph9.7 kmh -338605.1 mb 0.00 in0.0 mm 0.00 in/hr0.0 mm/hr 0.00 in0.0 mm
02:22 PM 103.5°F39.7°C 19.4°F-7.0°C 5% 8.9 mph SE14.3 kmh SE 0.9 mph1.4 kmh -338605.1 mb 0.00 in0.0 mm 0.00 in/hr0.0 mm/hr 0.00 in0.0 mm
02:27 PM 103.6°F39.8°C 19.6°F-6.9°C 5% 6.0 mph SE9.7 kmh SE 8.1 mph13.0 kmh -338605.1 mb 0.00 in0.0 mm 0.00 in/hr0.0 mm/hr 0.00 in0.0 mm
02:32 PM 103.8°F39.9°C 19.8°F-6.8°C 5% 6.9 mph SSW11.1 kmh SSW 8.9 mph14.3 kmh -338605.1 mb 0.00 in0.0 mm 0.00 in/hr0.0 mm/hr 0.00 in0.0 mm
02:37 PM 103.8°F39.9°C 24.1°F-4.4°C 6% 6.0 mph S9.7 kmh S 6.9 mph11.1 kmh -338605.1 mb 0.00 in0.0 mm 0.00 in/hr0.0 mm/hr 0.00 in0.0 mm
02:42 PM 103.8°F39.9°C 24.1°F-4.4°C 6% 4.9 mph S7.9 kmh S 10.1 mph16.3 kmh -338605.1 mb 0.00 in0.0 mm 0.00 in/hr0.0 mm/hr 0.00 in0.0 mm
02:47 PM 103.8°F39.9°C 24.1°F-4.4°C 6% 8.1 mph S13.0 kmh S 17.9 mph28.8 kmh -338605.1 mb 0.00 in0.0 mm 0.00 in/hr0.0 mm/hr 0.00 in0.0 mm
02:52 PM 103.6°F39.8°C 19.6°F-6.9°C 5% 10.1 mph S16.3 kmh S 10.1 mph16.3 kmh -338605.1 mb 0.00 in0.0 mm 0.00 in/hr0.0 mm/hr 0.00 in0.0 mm
02:57 PM 103.5°F39.7°C 23.7°F-4.6°C 6% 8.1 mph S13.0 kmh S 12.1 mph19.5 kmh -338605.1 mb 0.00 in0.0 mm 0.00 in/hr0.0 mm/hr 0.00 in0.0 mm
03:02 PM 103.6°F39.8°C 23.9°F-4.5°C 6% 8.9 mph SSE14.3 kmh SSE 6.0 mph9.7 kmh -338605.1 mb 0.00 in0.0 mm 0.00 in/hr0.0 mm/hr 0.00 in0.0 mm
03:07 PM 103.6°F39.8°C 23.9°F-4.5°C 6% 8.9 mph SSE14.3 kmh SSE 10.1 mph16.3 kmh -338605.1 mb 0.00 in0.0 mm 0.00 in/hr0.0 mm/hr 0.00 in0.0 mm
03:12 PM 103.8°F39.9°C 19.8°F-6.8°C 5% 8.9 mph SW14.3 kmh SW 4.9 mph7.9 kmh -338605.1 mb 0.00 in0.0 mm 0.00 in/hr0.0 mm/hr 0.00 in0.0 mm
03:17 PM 103.6°F39.8°C 19.6°F-6.9°C 5% 10.1 mph S16.3 kmh S 8.1 mph13.0 kmh -338605.1 mb 0.00 in0.0 mm 0.00 in/hr0.0 mm/hr 0.00 in0.0 mm
03:22 PM 103.8°F39.9°C 19.8°F-6.8°C 5% 8.9 mph S14.3 kmh S 6.0 mph9.7 kmh -338605.1 mb 0.00 in0.0 mm 0.00 in/hr0.0 mm/hr 0.00 in0.0 mm
03:27 PM 104.2°F40.1°C 19.9°F-6.7°C 5% 8.1 mph S13.0 kmh S 11.0 mph17.7 kmh -338605.1 mb 0.00 in0.0 mm 0.00 in/hr0.0 mm/hr 0.00 in0.0 mm
03:32 PM 104.4°F40.2°C 20.1°F-6.6°C 5% 8.9 mph SE14.3 kmh SE 13.0 mph20.9 kmh -338605.1 mb 0.00 in0.0 mm 0.00 in/hr0.0 mm/hr 0.00 in0.0 mm
03:37 PM 104.7°F40.4°C 20.3°F-6.5°C 5% 10.1 mph SSE16.3 kmh SSE 10.1 mph16.3 kmh -338605.1 mb 0.00 in0.0 mm 0.00 in/hr0.0 mm/hr 0.00 in0.0 mm
03:42 PM 104.7°F40.4°C 20.3°F-6.5°C 5% 8.9 mph SE14.3 kmh SE 8.1 mph13.0 kmh -338605.1 mb 0.00 in0.0 mm 0.00 in/hr0.0 mm/hr 0.00 in0.0 mm
03:47 PM 104.5°F40.3°C 20.1°F-6.6°C 5% 11.0 mph S17.7 kmh S 13.0 mph20.9 kmh -338605.1 mb 0.00 in0.0 mm 0.00 in/hr0.0 mm/hr 0.00 in0.0 mm
03:52 PM 104.2°F40.1°C 19.9°F-6.7°C 5% 13.0 mph SSE20.9 kmh SSE 8.1 mph13.0 kmh -338605.1 mb 0.00 in0.0 mm 0.00 in/hr0.0 mm/hr 0.00 in0.0 mm
03:57 PM 104.4°F40.2°C 20.1°F-6.6°C 5% 10.1 mph SW16.3 kmh SW 8.1 mph13.0 kmh -338605.1 mb 0.00 in0.0 mm 0.00 in/hr0.0 mm/hr 0.00 in0.0 mm
04:02 PM 104.5°F40.3°C 20.1°F-6.6°C 5% 8.1 mph S13.0 kmh S 4.0 mph6.4 kmh -338605.1 mb 0.00 in0.0 mm 0.00 in/hr0.0 mm/hr 0.00 in0.0 mm
04:07 PM 104.5°F40.3°C 20.1°F-6.6°C 5% 8.1 mph S13.0 kmh S 15.0 mph24.1 kmh -338605.1 mb 0.00 in0.0 mm 0.00 in/hr0.0 mm/hr 0.00 in0.0 mm
04:12 PM 104.4°F40.2°C 20.1°F-6.6°C 5% 8.1 mph SE13.0 kmh SE 6.9 mph11.1 kmh -338605.1 mb 0.00 in0.0 mm 0.00 in/hr0.0 mm/hr 0.00 in0.0 mm
04:17 PM 104.4°F40.2°C 20.1°F-6.6°C 5% 10.1 mph SE16.3 kmh SE 15.0 mph24.1 kmh -338605.1 mb 0.00 in0.0 mm 0.00 in/hr0.0 mm/hr 0.00 in0.0 mm
04:22 PM 103.8°F39.9°C 14.5°F-9.7°C 4% 11.0 mph SW17.7 kmh SW 6.9 mph11.1 kmh -338605.1 mb 0.00 in0.0 mm 0.00 in/hr0.0 mm/hr 0.00 in0.0 mm
04:27 PM 103.8°F39.9°C 19.8°F-6.8°C 5% 10.1 mph SSW16.3 kmh SSW 8.9 mph14.3 kmh -338605.1 mb 0.00 in0.0 mm 0.00 in/hr0.0 mm/hr 0.00 in0.0 mm
04:32 PM 103.6°F39.8°C 19.6°F-6.9°C 5% 10.1 mph S16.3 kmh S 10.1 mph16.3 kmh -338605.1 mb 0.00 in0.0 mm 0.00 in/hr0.0 mm/hr 0.00 in0.0 mm
04:37 PM 103.6°F39.8°C 23.9°F-4.5°C 6% 11.0 mph SW17.7 kmh SW 8.1 mph13.0 kmh -338605.1 mb 0.00 in0.0 mm 0.00 in/hr0.0 mm/hr 0.00 in0.0 mm
04:42 PM 103.5°F39.7°C 19.4°F-7.0°C 5% 8.9 mph S14.3 kmh S 16.1 mph25.9 kmh -338605.1 mb 0.00 in0.0 mm 0.00 in/hr0.0 mm/hr 0.00 in0.0 mm
04:47 PM 103.5°F39.7°C 23.7°F-4.6°C 6% 10.1 mph SW16.3 kmh SW 17.9 mph28.8 kmh -338605.1 mb 0.00 in0.0 mm 0.00 in/hr0.0 mm/hr 0.00 in0.0 mm
04:52 PM 103.3°F39.6°C 19.2°F-7.1°C 5% 11.0 mph SW17.7 kmh SW 4.9 mph7.9 kmh -338605.1 mb 0.00 in0.0 mm 0.00 in/hr0.0 mm/hr 0.00 in0.0 mm
04:57 PM 103.1°F39.5°C 23.5°F-4.7°C 6% 10.1 mph S16.3 kmh S 11.0 mph17.7 kmh -338605.1 mb 0.00 in0.0 mm 0.00 in/hr0.0 mm/hr 0.00 in0.0 mm